sensor_id;sensor_type;location;lat;lon;timestamp;temperature;humidity
5759;DHT22;2904;48.788;9.196;2022-12-18T00:01:19;-7.40;99.90
5759;DHT22;2904;48.788;9.196;2022-12-18T00:03:46;-7.20;99.90
5759;DHT22;2904;48.788;9.196;2022-12-18T00:06:12;-7.40;99.90
5759;DHT22;2904;48.788;9.196;2022-12-18T00:08:39;-6.60;99.90
5759;DHT22;2904;48.788;9.196;2022-12-18T00:11:07;-7.40;99.90
5759;DHT22;2904;48.788;9.196;2022-12-18T00:16:07;-7.50;99.90
5759;DHT22;2904;48.788;9.196;2022-12-18T00:18:34;-7.60;99.90
5759;DHT22;2904;48.788;9.196;2022-12-18T00:21:02;-7.40;99.90
5759;DHT22;2904;48.788;9.196;2022-12-18T00:23:29;-7.20;99.90
5759;DHT22;2904;48.788;9.196;2022-12-18T00:25:59;-7.30;99.90
5759;DHT22;2904;48.788;9.196;2022-12-18T00:28:25;-7.60;99.90
5759;DHT22;2904;48.788;9.196;2022-12-18T00:30:58;-7.50;99.90
5759;DHT22;2904;48.788;9.196;2022-12-18T00:33:24;-7.30;99.90
5759;DHT22;2904;48.788;9.196;2022-12-18T00:35:49;-7.20;99.90
5759;DHT22;2904;48.788;9.196;2022-12-18T00:38:15;-7.50;99.90
5759;DHT22;2904;48.788;9.196;2022-12-18T00:40:41;-7.50;99.90
5759;DHT22;2904;48.788;9.196;2022-12-18T00:43:09;-7.40;99.90
5759;DHT22;2904;48.788;9.196;2022-12-18T00:45:35;-7.60;99.90
5759;DHT22;2904;48.788;9.196;2022-12-18T00:48:01;-7.70;99.90
5759;DHT22;2904;48.788;9.196;2022-12-18T00:50:27;-7.60;99.90
5759;DHT22;2904;48.788;9.196;2022-12-18T00:52:53;-7.40;99.90
5759;DHT22;2904;48.788;9.196;2022-12-18T00:57:44;-7.50;99.90
5759;DHT22;2904;48.788;9.196;2022-12-18T01:00:13;-7.60;99.90
5759;DHT22;2904;48.788;9.196;2022-12-18T01:02:40;-7.50;99.90
5759;DHT22;2904;48.788;9.196;2022-12-18T01:05:07;-7.00;99.90
5759;DHT22;2904;48.788;9.196;2022-12-18T01:10:00;-7.50;99.90
5759;DHT22;2904;48.788;9.196;2022-12-18T01:12:25;-7.60;99.90
5759;DHT22;2904;48.788;9.196;2022-12-18T01:14:51;-7.50;99.90
5759;DHT22;2904;48.788;9.196;2022-12-18T01:17:17;-7.70;99.90
5759;DHT22;2904;48.788;9.196;2022-12-18T01:19:42;-7.60;99.90
5759;DHT22;2904;48.788;9.196;2022-12-18T01:22:08;-7.60;99.90
5759;DHT22;2904;48.788;9.196;2022-12-18T01:24:34;-8.00;99.90
5759;DHT22;2904;48.788;9.196;2022-12-18T01:27:00;-7.60;99.90
5759;DHT22;2904;48.788;9.196;2022-12-18T01:29:25;-7.60;99.90
5759;DHT22;2904;48.788;9.196;2022-12-18T01:31:55;-7.50;99.90
5759;DHT22;2904;48.788;9.196;2022-12-18T01:34:21;-7.50;99.90
5759;DHT22;2904;48.788;9.196;2022-12-18T01:39:14;-7.60;99.90
5759;DHT22;2904;48.788;9.196;2022-12-18T01:44:54;-7.70;99.90
5759;DHT22;2904;48.788;9.196;2022-12-18T01:47:46;-7.70;99.90
5759;DHT22;2904;48.788;9.196;2022-12-18T01:50:19;-7.70;99.90
5759;DHT22;2904;48.788;9.196;2022-12-18T01:52:54;-9.00;99.90
5759;DHT22;2904;48.788;9.196;2022-12-18T01:55:24;-7.70;99.90
5759;DHT22;2904;48.788;9.196;2022-12-18T01:57:54;-7.70;99.90
5759;DHT22;2904;48.788;9.196;2022-12-18T02:02:48;-7.60;99.90
5759;DHT22;2904;48.788;9.196;2022-12-18T02:05:24;-7.50;99.90
5759;DHT22;2904;48.788;9.196;2022-12-18T02:12:13;-7.60;99.90
5759;DHT22;2904;48.788;9.196;2022-12-18T02:28:17;-7.50;99.90
5759;DHT22;2904;48.788;9.196;2022-12-18T02:30:45;-7.30;99.90
5759;DHT22;2904;48.788;9.196;2022-12-18T02:33:13;-7.20;99.90
5759;DHT22;2904;48.788;9.196;2022-12-18T02:35:41;-7.40;99.90
5759;DHT22;2904;48.788;9.196;2022-12-18T02:40:35;-7.10;99.90
5759;DHT22;2904;48.788;9.196;2022-12-18T02:43:13;-7.40;99.90
5759;DHT22;2904;48.788;9.196;2022-12-18T02:45:52;-7.10;99.90
5759;DHT22;2904;48.788;9.196;2022-12-18T02:48:24;-7.00;99.90
5759;DHT22;2904;48.788;9.196;2022-12-18T02:51:13;-7.20;99.90
5759;DHT22;2904;48.788;9.196;2022-12-18T02:53:53;-7.00;99.90
5759;DHT22;2904;48.788;9.196;2022-12-18T02:56:34;-7.10;99.90
5759;DHT22;2904;48.788;9.196;2022-12-18T02:59:08;-7.40;99.90
5759;DHT22;2904;48.788;9.196;2022-12-18T03:01:55;-7.40;99.90
5759;DHT22;2904;48.788;9.196;2022-12-18T03:04:38;-7.50;99.90
5759;DHT22;2904;48.788;9.196;2022-12-18T03:07:15;-7.60;99.90
5759;DHT22;2904;48.788;9.196;2022-12-18T03:09:46;-7.40;99.90
5759;DHT22;2904;48.788;9.196;2022-12-18T03:12:35;-7.50;99.90
5759;DHT22;2904;48.788;9.196;2022-12-18T03:15:21;-7.50;99.90
5759;DHT22;2904;48.788;9.196;2022-12-18T03:18:38;-7.60;99.90
5759;DHT22;2904;48.788;9.196;2022-12-18T03:21:06;-7.90;99.90
5759;DHT22;2904;48.788;9.196;2022-12-18T03:23:39;-7.70;99.90
5759;DHT22;2904;48.788;9.196;2022-12-18T03:26:10;-7.60;99.90
5759;DHT22;2904;48.788;9.196;2022-12-18T03:28:41;-7.60;99.90
5759;DHT22;2904;48.788;9.196;2022-12-18T03:31:10;-7.30;99.90
5759;DHT22;2904;48.788;9.196;2022-12-18T03:36:27;-7.60;99.90
5759;DHT22;2904;48.788;9.196;2022-12-18T03:38:53;-7.60;99.90
5759;DHT22;2904;48.788;9.196;2022-12-18T03:41:31;-7.50;99.90
5759;DHT22;2904;48.788;9.196;2022-12-18T03:44:19;-7.60;99.90
5759;DHT22;2904;48.788;9.196;2022-12-18T03:51:03;-7.60;99.90
5759;DHT22;2904;48.788;9.196;2022-12-18T03:57:21;-7.50;99.90
5759;DHT22;2904;48.788;9.196;2022-12-18T03:59:51;-7.70;99.90
5759;DHT22;2904;48.788;9.196;2022-12-18T04:02:20;-7.70;99.90
5759;DHT22;2904;48.788;9.196;2022-12-18T04:04:48;-7.60;99.90
5759;DHT22;2904;48.788;9.196;2022-12-18T04:09:43;-7.60;99.90
5759;DHT22;2904;48.788;9.196;2022-12-18T04:14:38;-7.80;99.90
5759;DHT22;2904;48.788;9.196;2022-12-18T04:17:03;-7.60;99.90
5759;DHT22;2904;48.788;9.196;2022-12-18T04:19:29;-7.60;99.90
5759;DHT22;2904;48.788;9.196;2022-12-18T04:21:55;-7.60;99.90
5759;DHT22;2904;48.788;9.196;2022-12-18T04:24:21;-7.50;99.90
5759;DHT22;2904;48.788;9.196;2022-12-18T04:26:47;-7.50;99.90
5759;DHT22;2904;48.788;9.196;2022-12-18T04:29:13;-7.40;99.90
5759;DHT22;2904;48.788;9.196;2022-12-18T04:31:38;-7.40;99.90
5759;DHT22;2904;48.788;9.196;2022-12-18T04:43:48;-7.20;99.90
5759;DHT22;2904;48.788;9.196;2022-12-18T04:53:33;-7.00;99.90
5759;DHT22;2904;48.788;9.196;2022-12-18T04:58:32;-7.10;99.90
5759;DHT22;2904;48.788;9.196;2022-12-18T05:00:58;-7.20;99.90
5759;DHT22;2904;48.788;9.196;2022-12-18T05:03:23;-6.90;99.90
5759;DHT22;2904;48.788;9.196;2022-12-18T05:05:50;-6.80;99.90
5759;DHT22;2904;48.788;9.196;2022-12-18T05:10:42;-6.90;99.90
5759;DHT22;2904;48.788;9.196;2022-12-18T05:15:34;-7.20;99.90
5759;DHT22;2904;48.788;9.196;2022-12-18T05:18:00;-6.90;99.90
5759;DHT22;2904;48.788;9.196;2022-12-18T05:20:26;-7.00;99.90
5759;DHT22;2904;48.788;9.196;2022-12-18T05:22:53;-7.30;99.90
5759;DHT22;2904;48.788;9.196;2022-12-18T05:25:19;-7.00;99.90
5759;DHT22;2904;48.788;9.196;2022-12-18T05:27:46;-7.10;99.90
5759;DHT22;2904;48.788;9.196;2022-12-18T05:30:12;-7.10;99.90
5759;DHT22;2904;48.788;9.196;2022-12-18T05:32:38;-7.10;99.90
5759;DHT22;2904;48.788;9.196;2022-12-18T05:35:06;-7.00;99.90
5759;DHT22;2904;48.788;9.196;2022-12-18T05:37:33;-6.70;99.90
5759;DHT22;2904;48.788;9.196;2022-12-18T05:39:59;-6.70;99.90
5759;DHT22;2904;48.788;9.196;2022-12-18T05:44:50;-6.60;99.90
5759;DHT22;2904;48.788;9.196;2022-12-18T05:52:09;-7.30;99.90
5759;DHT22;2904;48.788;9.196;2022-12-18T06:04:19;-7.30;99.90
5759;DHT22;2904;48.788;9.196;2022-12-18T06:06:44;-7.50;99.90
5759;DHT22;2904;48.788;9.196;2022-12-18T06:09:10;-7.50;99.90
5759;DHT22;2904;48.788;9.196;2022-12-18T06:14:04;-7.50;99.90
5759;DHT22;2904;48.788;9.196;2022-12-18T06:16:31;-7.80;99.90
5759;DHT22;2904;48.788;9.196;2022-12-18T06:19:02;-7.90;99.90
5759;DHT22;2904;48.788;9.196;2022-12-18T06:21:29;-7.80;99.90
5759;DHT22;2904;48.788;9.196;2022-12-18T06:23:55;-7.70;99.90
5759;DHT22;2904;48.788;9.196;2022-12-18T06:26:22;-8.40;99.90
5759;DHT22;2904;48.788;9.196;2022-12-18T06:28:48;-8.20;99.90
5759;DHT22;2904;48.788;9.196;2022-12-18T06:33:41;-8.20;99.90
5759;DHT22;2904;48.788;9.196;2022-12-18T06:36:09;-8.20;99.90
5759;DHT22;2904;48.788;9.196;2022-12-18T06:38:37;-7.90;99.90
5759;DHT22;2904;48.788;9.196;2022-12-18T06:41:11;-8.20;99.90
5759;DHT22;2904;48.788;9.196;2022-12-18T06:46:04;-8.20;99.90
5759;DHT22;2904;48.788;9.196;2022-12-18T06:48:30;-8.10;99.90
5759;DHT22;2904;48.788;9.196;2022-12-18T06:50:56;-8.00;99.90
5759;DHT22;2904;48.788;9.196;2022-12-18T06:53:22;-7.90;99.90
5759;DHT22;2904;48.788;9.196;2022-12-18T06:55:48;-8.10;99.90
5759;DHT22;2904;48.788;9.196;2022-12-18T06:58:14;-8.30;99.90
5759;DHT22;2904;48.788;9.196;2022-12-18T07:00:40;-8.10;99.90
5759;DHT22;2904;48.788;9.196;2022-12-18T07:03:06;-8.10;99.90
5759;DHT22;2904;48.788;9.196;2022-12-18T07:05:32;-8.00;99.90
5759;DHT22;2904;48.788;9.196;2022-12-18T07:07:58;-7.90;99.90
5759;DHT22;2904;48.788;9.196;2022-12-18T07:12:49;-8.10;99.90
5759;DHT22;2904;48.788;9.196;2022-12-18T07:15:15;-8.10;99.90
5759;DHT22;2904;48.788;9.196;2022-12-18T07:17:41;-8.10;99.90
5759;DHT22;2904;48.788;9.196;2022-12-18T07:20:07;-8.10;99.90
5759;DHT22;2904;48.788;9.196;2022-12-18T07:22:33;-8.20;99.90
5759;DHT22;2904;48.788;9.196;2022-12-18T07:24:59;-8.20;99.90
5759;DHT22;2904;48.788;9.196;2022-12-18T07:27:25;-8.30;99.90
5759;DHT22;2904;48.788;9.196;2022-12-18T07:29:50;-8.30;99.90
5759;DHT22;2904;48.788;9.196;2022-12-18T07:32:16;-8.30;99.90
5759;DHT22;2904;48.788;9.196;2022-12-18T07:34:41;-8.30;99.90
5759;DHT22;2904;48.788;9.196;2022-12-18T07:37:07;-8.30;99.90
5759;DHT22;2904;48.788;9.196;2022-12-18T07:39:33;-8.50;99.90
5759;DHT22;2904;48.788;9.196;2022-12-18T07:41:59;-8.50;99.90
5759;DHT22;2904;48.788;9.196;2022-12-18T07:44:43;-8.50;99.90
5759;DHT22;2904;48.788;9.196;2022-12-18T07:47:09;-8.60;99.90
5759;DHT22;2904;48.788;9.196;2022-12-18T07:49:34;-8.70;99.90
5759;DHT22;2904;48.788;9.196;2022-12-18T07:52:00;-8.70;99.90
5759;DHT22;2904;48.788;9.196;2022-12-18T07:54:27;-8.60;99.90
5759;DHT22;2904;48.788;9.196;2022-12-18T07:56:53;-8.60;99.90
5759;DHT22;2904;48.788;9.196;2022-12-18T07:59:18;-8.60;99.90
5759;DHT22;2904;48.788;9.196;2022-12-18T08:01:44;-8.50;99.90
5759;DHT22;2904;48.788;9.196;2022-12-18T08:04:10;-8.30;99.90
5759;DHT22;2904;48.788;9.196;2022-12-18T08:06:36;-8.30;99.90
5759;DHT22;2904;48.788;9.196;2022-12-18T08:09:01;-8.40;99.90
5759;DHT22;2904;48.788;9.196;2022-12-18T08:11:28;-8.40;99.90
5759;DHT22;2904;48.788;9.196;2022-12-18T08:13:54;-8.40;99.90
5759;DHT22;2904;48.788;9.196;2022-12-18T08:16:21;-8.30;99.90
5759;DHT22;2904;48.788;9.196;2022-12-18T08:18:47;-8.30;99.90
5759;DHT22;2904;48.788;9.196;2022-12-18T08:21:22;-6.80;99.90
5759;DHT22;2904;48.788;9.196;2022-12-18T08:23:49;-8.20;99.90
5759;DHT22;2904;48.788;9.196;2022-12-18T08:26:16;-8.20;99.90
5759;DHT22;2904;48.788;9.196;2022-12-18T08:28:42;-8.20;99.90
5759;DHT22;2904;48.788;9.196;2022-12-18T08:31:08;-8.20;99.90
5759;DHT22;2904;48.788;9.196;2022-12-18T08:33:34;-8.20;99.90
5759;DHT22;2904;48.788;9.196;2022-12-18T08:36:01;-8.00;99.90
5759;DHT22;2904;48.788;9.196;2022-12-18T08:38:27;-7.80;99.90
5759;DHT22;2904;48.788;9.196;2022-12-18T08:41:04;-7.80;99.90
5759;DHT22;2904;48.788;9.196;2022-12-18T08:43:31;-7.80;99.90
5759;DHT22;2904;48.788;9.196;2022-12-18T08:46:17;-7.80;99.90
5759;DHT22;2904;48.788;9.196;2022-12-18T08:48:43;-7.80;99.90
5759;DHT22;2904;48.788;9.196;2022-12-18T08:51:09;-7.70;99.90
5759;DHT22;2904;48.788;9.196;2022-12-18T08:53:35;-7.80;99.90
5759;DHT22;2904;48.788;9.196;2022-12-18T08:56:01;-7.80;99.90
5759;DHT22;2904;48.788;9.196;2022-12-18T08:58:27;-7.80;99.90
5759;DHT22;2904;48.788;9.196;2022-12-18T09:00:53;-7.70;99.90
5759;DHT22;2904;48.788;9.196;2022-12-18T09:03:19;-7.70;99.90
5759;DHT22;2904;48.788;9.196;2022-12-18T09:05:48;-7.70;99.90
5759;DHT22;2904;48.788;9.196;2022-12-18T09:08:13;-7.70;99.90
5759;DHT22;2904;48.788;9.196;2022-12-18T09:10:44;-7.70;99.90
5759;DHT22;2904;48.788;9.196;2022-12-18T09:13:13;-7.70;99.90
5759;DHT22;2904;48.788;9.196;2022-12-18T09:15:58;-7.60;99.90
5759;DHT22;2904;48.788;9.196;2022-12-18T09:18:24;-7.60;99.90
5759;DHT22;2904;48.788;9.196;2022-12-18T09:20:50;-7.60;99.90
5759;DHT22;2904;48.788;9.196;2022-12-18T09:23:18;-7.50;99.90
5759;DHT22;2904;48.788;9.196;2022-12-18T09:25:43;-7.50;99.90
5759;DHT22;2904;48.788;9.196;2022-12-18T09:28:12;-7.50;99.90
5759;DHT22;2904;48.788;9.196;2022-12-18T09:30:40;-7.40;99.90
5759;DHT22;2904;48.788;9.196;2022-12-18T09:33:05;-7.40;99.90
5759;DHT22;2904;48.788;9.196;2022-12-18T09:35:31;-7.40;99.90
5759;DHT22;2904;48.788;9.196;2022-12-18T09:37:57;-7.30;99.90
5759;DHT22;2904;48.788;9.196;2022-12-18T09:40:25;-7.30;99.90
5759;DHT22;2904;48.788;9.196;2022-12-18T09:42:57;-7.20;99.90
5759;DHT22;2904;48.788;9.196;2022-12-18T09:45:25;-7.20;99.90
5759;DHT22;2904;48.788;9.196;2022-12-18T09:47:52;-7.10;99.90
5759;DHT22;2904;48.788;9.196;2022-12-18T09:50:31;-7.00;99.90
5759;DHT22;2904;48.788;9.196;2022-12-18T09:52:59;-7.00;99.90
5759;DHT22;2904;48.788;9.196;2022-12-18T09:55:37;-6.90;99.90
5759;DHT22;2904;48.788;9.196;2022-12-18T09:58:43;-6.80;99.90
5759;DHT22;2904;48.788;9.196;2022-12-18T10:01:15;-6.70;99.90
5759;DHT22;2904;48.788;9.196;2022-12-18T10:03:44;-6.70;99.90
5759;DHT22;2904;48.788;9.196;2022-12-18T10:06:31;-6.60;99.90
5759;DHT22;2904;48.788;9.196;2022-12-18T10:09:27;-6.50;99.90
5759;DHT22;2904;48.788;9.196;2022-12-18T10:12:23;-6.40;99.90
5759;DHT22;2904;48.788;9.196;2022-12-18T10:21:44;-6.20;99.90
5759;DHT22;2904;48.788;9.196;2022-12-18T10:25:51;-6.00;99.90
5759;DHT22;2904;48.788;9.196;2022-12-18T10:28:19;-5.90;99.90
5759;DHT22;2904;48.788;9.196;2022-12-18T10:30:45;-5.80;99.90
5759;DHT22;2904;48.788;9.196;2022-12-18T10:33:13;-5.70;99.90
5759;DHT22;2904;48.788;9.196;2022-12-18T10:35:42;-5.60;99.90
5759;DHT22;2904;48.788;9.196;2022-12-18T10:38:41;-5.50;99.90
5759;DHT22;2904;48.788;9.196;2022-12-18T10:41:26;-5.30;99.90
5759;DHT22;2904;48.788;9.196;2022-12-18T10:44:17;-5.30;99.90
5759;DHT22;2904;48.788;9.196;2022-12-18T10:46:53;-5.20;99.90
5759;DHT22;2904;48.788;9.196;2022-12-18T10:49:30;-5.10;99.90
5759;DHT22;2904;48.788;9.196;2022-12-18T10:52:57;-5.00;99.90
5759;DHT22;2904;48.788;9.196;2022-12-18T10:55:35;-5.00;99.90
5759;DHT22;2904;48.788;9.196;2022-12-18T10:58:29;-4.90;99.90
5759;DHT22;2904;48.788;9.196;2022-12-18T11:01:13;-4.80;99.90
5759;DHT22;2904;48.788;9.196;2022-12-18T11:03:43;-4.60;99.90
5759;DHT22;2904;48.788;9.196;2022-12-18T11:06:16;-4.50;99.90
5759;DHT22;2904;48.788;9.196;2022-12-18T11:08:43;-4.40;99.90
5759;DHT22;2904;48.788;9.196;2022-12-18T11:11:20;-4.30;99.90
5759;DHT22;2904;48.788;9.196;2022-12-18T11:15:13;-4.20;99.90
5759;DHT22;2904;48.788;9.196;2022-12-18T11:17:40;-4.00;99.90
5759;DHT22;2904;48.788;9.196;2022-12-18T11:20:21;-4.00;99.90
5759;DHT22;2904;48.788;9.196;2022-12-18T11:23:04;-3.90;99.90
5759;DHT22;2904;48.788;9.196;2022-12-18T11:25:32;-3.70;99.90
5759;DHT22;2904;48.788;9.196;2022-12-18T11:28:01;-3.60;99.90
5759;DHT22;2904;48.788;9.196;2022-12-18T11:30:37;-3.50;99.90
5759;DHT22;2904;48.788;9.196;2022-12-18T11:34:58;-3.50;99.90
5759;DHT22;2904;48.788;9.196;2022-12-18T11:37:24;-3.40;99.90
5759;DHT22;2904;48.788;9.196;2022-12-18T11:40:17;-3.30;99.90
5759;DHT22;2904;48.788;9.196;2022-12-18T11:42:51;-2.90;99.90
5759;DHT22;2904;48.788;9.196;2022-12-18T11:45:30;-2.80;99.90
5759;DHT22;2904;48.788;9.196;2022-12-18T11:48:18;-2.80;99.90
5759;DHT22;2904;48.788;9.196;2022-12-18T11:50:57;-2.70;99.90
5759;DHT22;2904;48.788;9.196;2022-12-18T11:53:27;-2.60;99.90
5759;DHT22;2904;48.788;9.196;2022-12-18T11:56:26;-1.50;99.90
5759;DHT22;2904;48.788;9.196;2022-12-18T11:59:08;-2.50;99.90
5759;DHT22;2904;48.788;9.196;2022-12-18T12:02:01;-2.40;99.90
5759;DHT22;2904;48.788;9.196;2022-12-18T12:07:26;-2.30;99.90
5759;DHT22;2904;48.788;9.196;2022-12-18T12:23:26;-2.10;99.90
5759;DHT22;2904;48.788;9.196;2022-12-18T12:26:13;-1.90;99.90
5759;DHT22;2904;48.788;9.196;2022-12-18T12:34:02;-1.90;99.90
5759;DHT22;2904;48.788;9.196;2022-12-18T12:41:07;-1.70;99.90
5759;DHT22;2904;48.788;9.196;2022-12-18T12:45:50;-1.60;99.90
5759;DHT22;2904;48.788;9.196;2022-12-18T12:48:27;-1.50;99.90
5759;DHT22;2904;48.788;9.196;2022-12-18T12:50:57;-1.40;99.90
5759;DHT22;2904;48.788;9.196;2022-12-18T12:53:32;-1.30;99.90
5759;DHT22;2904;48.788;9.196;2022-12-18T12:55:59;-1.30;99.90
5759;DHT22;2904;48.788;9.196;2022-12-18T13:03:18;-1.40;99.90
5759;DHT22;2904;48.788;9.196;2022-12-18T13:05:54;-1.40;99.90
5759;DHT22;2904;48.788;9.196;2022-12-18T13:08:31;-1.30;99.90
5759;DHT22;2904;48.788;9.196;2022-12-18T13:10:58;-1.30;99.90
5759;DHT22;2904;48.788;9.196;2022-12-18T13:13:56;-1.20;99.90
5759;DHT22;2904;48.788;9.196;2022-12-18T13:16:23;-1.10;99.90
5759;DHT22;2904;48.788;9.196;2022-12-18T13:18:51;-1.10;99.90
5759;DHT22;2904;48.788;9.196;2022-12-18T13:21:24;-1.00;99.90
5759;DHT22;2904;48.788;9.196;2022-12-18T13:23:52;-0.90;99.90
5759;DHT22;2904;48.788;9.196;2022-12-18T13:26:29;-0.90;99.90
5759;DHT22;2904;48.788;9.196;2022-12-18T13:28:57;-0.80;99.90
5759;DHT22;2904;48.788;9.196;2022-12-18T13:31:57;-0.70;99.90
5759;DHT22;2904;48.788;9.196;2022-12-18T13:34:25;-0.70;99.90
5759;DHT22;2904;48.788;9.196;2022-12-18T13:36:52;-0.70;99.90
5759;DHT22;2904;48.788;9.196;2022-12-18T13:39:25;-0.60;99.90
5759;DHT22;2904;48.788;9.196;2022-12-18T13:42:57;-0.60;99.90
5759;DHT22;2904;48.788;9.196;2022-12-18T13:45:47;-0.50;99.90
5759;DHT22;2904;48.788;9.196;2022-12-18T13:48:20;-0.60;99.90
5759;DHT22;2904;48.788;9.196;2022-12-18T13:51:06;-0.60;99.90
5759;DHT22;2904;48.788;9.196;2022-12-18T13:55:07;-0.60;99.90
5759;DHT22;2904;48.788;9.196;2022-12-18T13:57:39;-0.70;99.90
5759;DHT22;2904;48.788;9.196;2022-12-18T14:00:27;-0.70;99.90
5759;DHT22;2904;48.788;9.196;2022-12-18T14:02:54;-0.70;99.90
5759;DHT22;2904;48.788;9.196;2022-12-18T14:05:32;-0.60;99.90
5759;DHT22;2904;48.788;9.196;2022-12-18T14:08:16;-0.70;99.90
5759;DHT22;2904;48.788;9.196;2022-12-18T14:10:49;-0.70;99.90
5759;DHT22;2904;48.788;9.196;2022-12-18T14:13:41;-0.80;99.90
5759;DHT22;2904;48.788;9.196;2022-12-18T14:16:14;-0.90;99.90
5759;DHT22;2904;48.788;9.196;2022-12-18T14:19:14;-0.90;99.90
5759;DHT22;2904;48.788;9.196;2022-12-18T14:21:46;-1.00;99.90
5759;DHT22;2904;48.788;9.196;2022-12-18T14:24:18;-1.10;99.90
5759;DHT22;2904;48.788;9.196;2022-12-18T14:26:44;-1.10;99.90
5759;DHT22;2904;48.788;9.196;2022-12-18T14:29:28;-1.20;99.90
5759;DHT22;2904;48.788;9.196;2022-12-18T14:32:17;-1.20;99.90
5759;DHT22;2904;48.788;9.196;2022-12-18T14:34:48;-1.30;99.90
5759;DHT22;2904;48.788;9.196;2022-12-18T14:37:26;-1.30;99.90
5759;DHT22;2904;48.788;9.196;2022-12-18T14:40:00;-1.30;99.90
5759;DHT22;2904;48.788;9.196;2022-12-18T14:42:27;-1.40;99.90
5759;DHT22;2904;48.788;9.196;2022-12-18T14:47:57;-1.60;99.90
5759;DHT22;2904;48.788;9.196;2022-12-18T14:50:23;-1.60;99.90
5759;DHT22;2904;48.788;9.196;2022-12-18T14:52:49;-1.50;99.90
5759;DHT22;2904;48.788;9.196;2022-12-18T14:55:17;-1.40;99.90
5759;DHT22;2904;48.788;9.196;2022-12-18T14:57:43;-1.50;99.90
5759;DHT22;2904;48.788;9.196;2022-12-18T15:00:19;-1.50;99.90
5759;DHT22;2904;48.788;9.196;2022-12-18T15:02:46;-1.60;99.90
5759;DHT22;2904;48.788;9.196;2022-12-18T15:05:20;-1.70;99.90
5759;DHT22;2904;48.788;9.196;2022-12-18T15:07:55;-1.80;99.90
5759;DHT22;2904;48.788;9.196;2022-12-18T15:10:28;-1.90;99.90
5759;DHT22;2904;48.788;9.196;2022-12-18T15:13:20;-2.00;99.90
5759;DHT22;2904;48.788;9.196;2022-12-18T15:15:50;-2.10;99.90
5759;DHT22;2904;48.788;9.196;2022-12-18T15:18:19;-2.20;99.90
5759;DHT22;2904;48.788;9.196;2022-12-18T15:20:54;-2.20;99.90
5759;DHT22;2904;48.788;9.196;2022-12-18T15:23:45;-2.20;99.90
5759;DHT22;2904;48.788;9.196;2022-12-18T15:26:14;-2.20;99.90
5759;DHT22;2904;48.788;9.196;2022-12-18T15:28:54;-2.30;99.90
5759;DHT22;2904;48.788;9.196;2022-12-18T15:31:29;-2.30;99.90
5759;DHT22;2904;48.788;9.196;2022-12-18T15:34:20;-2.30;99.90
5759;DHT22;2904;48.788;9.196;2022-12-18T15:36:47;-2.30;99.90
5759;DHT22;2904;48.788;9.196;2022-12-18T15:39:14;-2.40;99.90
5759;DHT22;2904;48.788;9.196;2022-12-18T15:41:40;-2.40;99.90
5759;DHT22;2904;48.788;9.196;2022-12-18T15:44:24;-2.40;99.90
5759;DHT22;2904;48.788;9.196;2022-12-18T15:46:51;-2.40;99.90
5759;DHT22;2904;48.788;9.196;2022-12-18T15:49:16;-2.40;99.90
5759;DHT22;2904;48.788;9.196;2022-12-18T15:51:43;-2.30;99.90
5759;DHT22;2904;48.788;9.196;2022-12-18T15:54:13;-2.40;99.90
5759;DHT22;2904;48.788;9.196;2022-12-18T15:56:41;-2.40;99.90
5759;DHT22;2904;48.788;9.196;2022-12-18T15:59:25;-2.40;99.90
5759;DHT22;2904;48.788;9.196;2022-12-18T16:01:52;-2.50;99.90
5759;DHT22;2904;48.788;9.196;2022-12-18T16:04:21;-2.50;99.90
5759;DHT22;2904;48.788;9.196;2022-12-18T16:06:49;-2.50;99.90
5759;DHT22;2904;48.788;9.196;2022-12-18T16:09:17;-2.50;99.90
5759;DHT22;2904;48.788;9.196;2022-12-18T16:11:43;-2.60;99.90
5759;DHT22;2904;48.788;9.196;2022-12-18T16:14:26;-2.60;99.90
5759;DHT22;2904;48.788;9.196;2022-12-18T16:16:55;-2.60;99.90
5759;DHT22;2904;48.788;9.196;2022-12-18T16:19:21;-2.60;99.90
5759;DHT22;2904;48.788;9.196;2022-12-18T16:21:48;-2.70;99.90
5759;DHT22;2904;48.788;9.196;2022-12-18T16:24:20;-2.70;99.90
5759;DHT22;2904;48.788;9.196;2022-12-18T16:26:48;-2.80;99.90
5759;DHT22;2904;48.788;9.196;2022-12-18T16:29:14;-2.80;99.90
5759;DHT22;2904;48.788;9.196;2022-12-18T16:31:40;-2.70;99.90
5759;DHT22;2904;48.788;9.196;2022-12-18T16:34:39;-2.70;99.90
5759;DHT22;2904;48.788;9.196;2022-12-18T16:37:06;-2.60;99.90
5759;DHT22;2904;48.788;9.196;2022-12-18T16:39:33;-2.60;99.90
5759;DHT22;2904;48.788;9.196;2022-12-18T16:42:00;-2.60;99.90
5759;DHT22;2904;48.788;9.196;2022-12-18T16:44:26;-2.60;99.90
5759;DHT22;2904;48.788;9.196;2022-12-18T16:46:52;-2.60;99.90
5759;DHT22;2904;48.788;9.196;2022-12-18T16:49:19;-2.50;99.90
5759;DHT22;2904;48.788;9.196;2022-12-18T16:51:47;-2.50;99.90
5759;DHT22;2904;48.788;9.196;2022-12-18T16:54:13;-2.50;99.90
5759;DHT22;2904;48.788;9.196;2022-12-18T16:56:40;-2.50;99.90
5759;DHT22;2904;48.788;9.196;2022-12-18T16:59:07;-2.50;99.90
5759;DHT22;2904;48.788;9.196;2022-12-18T17:01:34;-2.50;99.90
5759;DHT22;2904;48.788;9.196;2022-12-18T17:04:02;-2.50;99.90
5759;DHT22;2904;48.788;9.196;2022-12-18T17:06:30;-2.50;99.90
5759;DHT22;2904;48.788;9.196;2022-12-18T17:09:04;-2.50;99.90
5759;DHT22;2904;48.788;9.196;2022-12-18T17:11:32;-2.50;99.90
5759;DHT22;2904;48.788;9.196;2022-12-18T17:13:58;-2.50;99.90
5759;DHT22;2904;48.788;9.196;2022-12-18T17:16:24;-2.50;99.90
5759;DHT22;2904;48.788;9.196;2022-12-18T17:18:52;-2.50;99.90
5759;DHT22;2904;48.788;9.196;2022-12-18T17:21:18;-2.40;99.90
5759;DHT22;2904;48.788;9.196;2022-12-18T17:23:44;-2.40;99.90
5759;DHT22;2904;48.788;9.196;2022-12-18T17:26:11;-2.40;99.90
5759;DHT22;2904;48.788;9.196;2022-12-18T17:28:38;-2.40;99.90
5759;DHT22;2904;48.788;9.196;2022-12-18T17:31:17;-2.40;99.90
5759;DHT22;2904;48.788;9.196;2022-12-18T17:33:43;-2.30;99.90
5759;DHT22;2904;48.788;9.196;2022-12-18T17:36:10;-2.30;99.90
5759;DHT22;2904;48.788;9.196;2022-12-18T17:38:41;-2.30;99.90
5759;DHT22;2904;48.788;9.196;2022-12-18T17:41:09;-2.30;99.90
5759;DHT22;2904;48.788;9.196;2022-12-18T17:43:36;-2.30;99.90
5759;DHT22;2904;48.788;9.196;2022-12-18T17:46:09;-2.30;99.90
5759;DHT22;2904;48.788;9.196;2022-12-18T17:48:36;-2.30;99.90
5759;DHT22;2904;48.788;9.196;2022-12-18T17:51:04;-2.30;99.90
5759;DHT22;2904;48.788;9.196;2022-12-18T17:53:31;-2.20;99.90
5759;DHT22;2904;48.788;9.196;2022-12-18T17:55:58;-2.20;99.90
5759;DHT22;2904;48.788;9.196;2022-12-18T17:58:30;-2.20;99.90
5759;DHT22;2904;48.788;9.196;2022-12-18T18:00:56;-2.20;99.90
5759;DHT22;2904;48.788;9.196;2022-12-18T18:03:22;-2.20;99.90
5759;DHT22;2904;48.788;9.196;2022-12-18T18:05:48;-2.20;99.90
5759;DHT22;2904;48.788;9.196;2022-12-18T18:08:13;-2.30;99.90
5759;DHT22;2904;48.788;9.196;2022-12-18T18:10:39;-2.30;99.90
5759;DHT22;2904;48.788;9.196;2022-12-18T18:13:06;-2.40;99.90
5759;DHT22;2904;48.788;9.196;2022-12-18T18:16:00;-2.40;99.90
5759;DHT22;2904;48.788;9.196;2022-12-18T18:18:28;-2.30;99.90
5759;DHT22;2904;48.788;9.196;2022-12-18T18:20:54;-2.30;99.90
5759;DHT22;2904;48.788;9.196;2022-12-18T18:23:20;-2.30;99.90
5759;DHT22;2904;48.788;9.196;2022-12-18T18:25:47;-2.30;99.90
5759;DHT22;2904;48.788;9.196;2022-12-18T18:28:13;-2.30;99.90
5759;DHT22;2904;48.788;9.196;2022-12-18T18:30:38;-2.40;99.90
5759;DHT22;2904;48.788;9.196;2022-12-18T18:33:07;-2.40;99.90
5759;DHT22;2904;48.788;9.196;2022-12-18T18:35:41;-2.30;99.90
5759;DHT22;2904;48.788;9.196;2022-12-18T18:38:08;-2.40;99.90
5759;DHT22;2904;48.788;9.196;2022-12-18T18:40:34;-2.40;99.90
5759;DHT22;2904;48.788;9.196;2022-12-18T18:42:59;-2.40;99.90
5759;DHT22;2904;48.788;9.196;2022-12-18T18:45:25;-2.40;99.90
5759;DHT22;2904;48.788;9.196;2022-12-18T18:47:51;-2.40;99.90
5759;DHT22;2904;48.788;9.196;2022-12-18T18:50:16;-2.40;99.90
5759;DHT22;2904;48.788;9.196;2022-12-18T18:52:42;-2.30;99.90
5759;DHT22;2904;48.788;9.196;2022-12-18T18:55:08;-2.30;99.90
5759;DHT22;2904;48.788;9.196;2022-12-18T18:57:34;-2.30;99.90
5759;DHT22;2904;48.788;9.196;2022-12-18T18:59:59;-2.40;99.90